createdAt,value
2017-12-10T00:00:08.883Z,100182.94
2017-12-10T00:02:36.661Z,100175.02
2017-12-10T00:05:04.355Z,100165.44
2017-12-10T00:07:32.135Z,100164.00
2017-12-10T00:09:59.789Z,100158.53
2017-12-10T00:12:27.495Z,100151.20
2017-12-10T00:14:55.206Z,100152.03
2017-12-10T00:17:22.882Z,100142.78
2017-12-10T00:19:50.593Z,100135.61
2017-12-10T00:22:18.240Z,100133.53
2017-12-10T00:24:45.943Z,100120.84
2017-12-10T00:27:13.597Z,100114.51
2017-12-10T00:29:41.298Z,100107.70
2017-12-10T00:32:08.971Z,100104.35
2017-12-10T00:34:36.668Z,100099.37
2017-12-10T00:37:04.297Z,100097.14
2017-12-10T00:39:32.000Z,100089.14
2017-12-10T00:41:59.653Z,100090.69
2017-12-10T00:44:27.456Z,100071.84
2017-12-10T00:46:55.251Z,100068.12
2017-12-10T00:49:22.950Z,100064.65
2017-12-10T00:51:50.684Z,100058.80
2017-12-10T00:54:18.371Z,100056.16
2017-12-10T00:56:46.034Z,100053.86
2017-12-10T00:59:13.731Z,100054.47
2017-12-10T01:01:41.381Z,100033.61
2017-12-10T01:04:09.162Z,100039.12
2017-12-10T01:06:36.811Z,100043.53
2017-12-10T01:09:04.539Z,100035.06
2017-12-10T01:11:32.203Z,100031.33
2017-12-10T01:13:59.881Z,100031.49
2017-12-10T01:16:27.543Z,100013.20
2017-12-10T01:18:55.233Z,100008.28
2017-12-10T01:21:22.898Z,100005.69
2017-12-10T01:23:50.590Z,100005.28
2017-12-10T01:26:18.272Z,99991.69
2017-12-10T01:28:45.950Z,99990.25
2017-12-10T01:31:13.606Z,99977.11
2017-12-10T01:33:41.279Z,99972.73
2017-12-10T01:36:08.928Z,99969.36
2017-12-10T01:38:36.707Z,99971.55
2017-12-10T01:41:04.354Z,99970.78
2017-12-10T01:43:32.022Z,99968.73
2017-12-10T01:45:59.716Z,99970.47
2017-12-10T01:48:27.391Z,99961.72
2017-12-10T01:50:55.094Z,99963.69
2017-12-10T01:53:22.778Z,99951.27
2017-12-10T01:55:50.478Z,99947.13
2017-12-10T01:58:18.171Z,99939.61
2017-12-10T02:00:45.827Z,99941.16
2017-12-10T02:03:13.548Z,99918.11
2017-12-10T02:05:41.206Z,99903.64
2017-12-10T02:08:08.944Z,99906.28
2017-12-10T02:10:36.582Z,99899.91
2017-12-10T02:13:04.246Z,99897.74
2017-12-10T02:15:31.995Z,99889.05
2017-12-10T02:17:59.680Z,99872.47
2017-12-10T02:20:27.331Z,99860.52
2017-12-10T02:22:55.018Z,99857.53
2017-12-10T02:25:22.663Z,99866.16
2017-12-10T02:27:50.326Z,99841.86
2017-12-10T02:30:18.021Z,99838.86
2017-12-10T02:32:45.666Z,99827.73
2017-12-10T02:35:13.417Z,99812.67
2017-12-10T02:37:41.069Z,99814.97
2017-12-10T02:40:08.754Z,99805.60
2017-12-10T02:42:36.398Z,99807.57
2017-12-10T02:45:04.122Z,99798.09
2017-12-10T02:47:31.764Z,99791.25
2017-12-10T02:49:59.450Z,99792.45
2017-12-10T02:52:27.221Z,99779.01
2017-12-10T02:54:54.899Z,99783.14
2017-12-10T02:57:22.564Z,99770.91
2017-12-10T02:59:50.275Z,99777.19
2017-12-10T03:02:17.927Z,99771.61
2017-12-10T03:04:45.622Z,99760.98
2017-12-10T03:07:13.284Z,99752.09
2017-12-10T03:09:40.951Z,99745.95
2017-12-10T03:12:08.598Z,99737.91
2017-12-10T03:14:36.279Z,99734.33
2017-12-10T03:17:03.974Z,99722.55
2017-12-10T03:19:31.660Z,99712.63
2017-12-10T03:21:59.302Z,99705.48
2017-12-10T03:24:27.011Z,99690.19
2017-12-10T03:26:54.661Z,99690.36
2017-12-10T03:29:22.359Z,99685.92
2017-12-10T03:31:50.017Z,99682.36
2017-12-10T03:34:17.707Z,99666.92
2017-12-10T03:36:45.345Z,99659.66
2017-12-10T03:39:13.042Z,99666.80
2017-12-10T03:41:40.694Z,99655.75
2017-12-10T03:44:08.386Z,99651.11
2017-12-10T03:46:36.030Z,99648.64
2017-12-10T03:49:03.747Z,99641.27
2017-12-10T03:51:31.383Z,99628.84
2017-12-10T03:53:59.038Z,99611.66
2017-12-10T03:56:26.727Z,99603.41
2017-12-10T03:58:54.511Z,99602.94
2017-12-10T04:01:22.189Z,99590.37
2017-12-10T04:03:49.827Z,99597.30
2017-12-10T04:06:17.517Z,99585.94
2017-12-10T04:08:45.233Z,99597.22
2017-12-10T04:11:12.943Z,99582.11
2017-12-10T04:13:40.577Z,99573.23
2017-12-10T04:16:08.267Z,99569.27
2017-12-10T04:18:35.914Z,99558.94
2017-12-10T04:21:03.592Z,99558.82
2017-12-10T04:23:31.274Z,99560.96
2017-12-10T04:25:58.966Z,99552.79
2017-12-10T04:28:26.650Z,99537.47
2017-12-10T04:30:54.326Z,99537.89
2017-12-10T04:33:21.981Z,99533.88
2017-12-10T04:35:49.667Z,99519.34
2017-12-10T04:38:17.327Z,99518.69
2017-12-10T04:40:45.010Z,99512.85
2017-12-10T04:43:12.658Z,99506.00
2017-12-10T04:45:40.378Z,99506.99
2017-12-10T04:48:08.023Z,99488.40
2017-12-10T04:50:35.702Z,99473.86
2017-12-10T04:53:03.351Z,99466.92
2017-12-10T04:55:31.025Z,99459.50
2017-12-10T04:57:58.734Z,99451.68
2017-12-10T05:00:26.414Z,99434.25
2017-12-10T05:02:54.066Z,99423.56
2017-12-10T05:05:21.719Z,99417.62
2017-12-10T05:07:49.378Z,99403.78
2017-12-10T05:10:17.085Z,99404.69
2017-12-10T05:12:44.718Z,99393.05
2017-12-10T05:15:12.410Z,99384.46
2017-12-10T05:17:40.066Z,99388.01
2017-12-10T05:20:07.770Z,99377.47
2017-12-10T05:22:35.403Z,99366.49
2017-12-10T05:25:03.098Z,99361.08
2017-12-10T05:27:30.842Z,99356.83
2017-12-10T05:29:58.523Z,99344.53
2017-12-10T05:32:26.171Z,99329.74
2017-12-10T05:34:53.858Z,99326.84
2017-12-10T05:37:21.514Z,99312.94
2017-12-10T05:39:49.219Z,99305.35
2017-12-10T05:42:16.866Z,99300.10
2017-12-10T05:44:44.659Z,99277.73
2017-12-10T05:47:12.289Z,99276.03
2017-12-10T05:49:39.974Z,99268.23
2017-12-10T05:52:07.638Z,99260.43
2017-12-10T05:54:35.310Z,99255.39
2017-12-10T05:57:03.037Z,99240.36
2017-12-10T05:59:30.702Z,99234.50
2017-12-10T06:01:58.372Z,99224.13
2017-12-10T06:04:26.076Z,99213.14
2017-12-10T06:06:53.810Z,99208.65
2017-12-10T06:09:21.503Z,99197.95
2017-12-10T06:11:49.190Z,99189.45
2017-12-10T06:14:16.894Z,99173.20
2017-12-10T06:16:44.646Z,99153.47
2017-12-10T06:19:12.292Z,99161.53
2017-12-10T06:21:39.997Z,99152.12
2017-12-10T06:24:07.621Z,99140.36
2017-12-10T06:26:35.328Z,99134.28
2017-12-10T06:29:02.969Z,99129.69
2017-12-10T06:31:30.673Z,99120.16
2017-12-10T06:33:58.331Z,99124.50
2017-12-10T06:36:26.020Z,99113.02
2017-12-10T06:38:53.665Z,99101.13
2017-12-10T06:41:21.427Z,99099.31
2017-12-10T06:43:49.090Z,99099.19
2017-12-10T06:46:16.751Z,99097.30
2017-12-10T06:48:44.495Z,99085.79
2017-12-10T06:51:12.167Z,99081.31
2017-12-10T06:53:39.813Z,99063.20
2017-12-10T06:56:07.507Z,99067.67
2017-12-10T06:58:35.142Z,99054.63
2017-12-10T07:01:02.903Z,99032.14
2017-12-10T07:03:30.542Z,99027.20
2017-12-10T07:05:58.225Z,99020.08
2017-12-10T07:08:25.870Z,99006.30
2017-12-10T07:10:53.555Z,98990.84
2017-12-10T07:13:21.218Z,98982.91
2017-12-10T07:15:48.891Z,98979.89
2017-12-10T07:18:16.556Z,98974.72
2017-12-10T07:20:44.241Z,98969.12
2017-12-10T07:23:11.898Z,98951.28
2017-12-10T07:25:39.589Z,98940.94
2017-12-10T07:28:07.234Z,98928.27
2017-12-10T07:30:34.918Z,98919.16
2017-12-10T07:33:02.579Z,98912.53
2017-12-10T07:35:30.339Z,98905.66
2017-12-10T07:37:58.000Z,98896.41
2017-12-10T07:40:25.751Z,98881.52
2017-12-10T07:42:53.378Z,98887.17
2017-12-10T07:45:21.076Z,98871.20
2017-12-10T07:47:48.743Z,98864.59
2017-12-10T07:50:16.530Z,98849.97
2017-12-10T07:52:44.158Z,98835.70
2017-12-10T07:55:11.878Z,98833.34
2017-12-10T07:57:39.580Z,98818.80
2017-12-10T08:00:07.250Z,98802.80
2017-12-10T08:02:34.930Z,98780.09
2017-12-10T08:05:02.610Z,98782.63
2017-12-10T08:07:30.286Z,98771.91
2017-12-10T08:09:58.021Z,98759.34
2017-12-10T08:12:25.634Z,98749.56
2017-12-10T08:14:53.402Z,98739.66
2017-12-10T08:17:21.090Z,98729.47
2017-12-10T08:19:48.811Z,98722.75
2017-12-10T08:22:16.471Z,98713.01
2017-12-10T08:24:44.228Z,98694.79
2017-12-10T08:27:11.882Z,98695.86
2017-12-10T08:29:39.577Z,98685.04
2017-12-10T08:32:07.247Z,98673.30
2017-12-10T08:34:34.954Z,98668.44
2017-12-10T08:37:02.610Z,98657.22
2017-12-10T08:39:30.324Z,98637.04
2017-12-10T08:41:58.007Z,98615.91
2017-12-10T08:44:25.751Z,98614.84
2017-12-10T08:46:53.398Z,98596.89
2017-12-10T08:49:21.155Z,98585.93
2017-12-10T08:51:48.810Z,98583.02
2017-12-10T08:54:16.505Z,98556.23
2017-12-10T08:56:44.160Z,98541.03
2017-12-10T08:59:11.854Z,98529.69
2017-12-10T09:01:39.499Z,98510.94
2017-12-10T09:04:07.194Z,98489.00
2017-12-10T09:06:34.876Z,98470.79
2017-12-10T09:09:02.642Z,98457.72
2017-12-10T09:11:30.322Z,98447.43
2017-12-10T09:13:57.982Z,98430.41
2017-12-10T09:16:25.690Z,98418.75
2017-12-10T09:18:53.404Z,98412.16
2017-12-10T09:21:21.055Z,98409.78
2017-12-10T09:23:48.862Z,98403.95
2017-12-10T09:26:16.527Z,98394.61
2017-12-10T09:28:44.261Z,98393.66
2017-12-10T09:31:11.923Z,98383.37
2017-12-10T09:33:39.664Z,98364.88
2017-12-10T09:36:07.319Z,98367.12
2017-12-10T09:38:34.995Z,98340.20
2017-12-10T09:41:02.734Z,98331.36
2017-12-10T09:43:30.422Z,98309.42
2017-12-10T09:45:58.129Z,98296.63
2017-12-10T09:48:25.795Z,98296.77
2017-12-10T09:50:53.531Z,98273.55
2017-12-10T09:53:21.188Z,98268.00
2017-12-10T09:55:48.869Z,98269.87
2017-12-10T09:58:16.535Z,98263.27
2017-12-10T10:00:44.218Z,98249.97
2017-12-10T10:03:11.867Z,98242.47
2017-12-10T10:05:39.552Z,98233.00
2017-12-10T10:08:07.215Z,98209.94
2017-12-10T10:10:34.906Z,98189.51
2017-12-10T10:13:02.575Z,98166.08
2017-12-10T10:15:30.273Z,98146.70
2017-12-10T10:17:58.057Z,98136.97
2017-12-10T10:20:25.766Z,98128.92
2017-12-10T10:22:53.404Z,98105.06
2017-12-10T10:25:21.072Z,98085.20
2017-12-10T10:27:48.757Z,98061.75
2017-12-10T10:30:16.452Z,98048.05
2017-12-10T10:32:44.146Z,98021.42
2017-12-10T10:35:11.850Z,97986.54
2017-12-10T10:37:39.518Z,97960.61
2017-12-10T10:40:07.202Z,97926.38
2017-12-10T10:42:35.015Z,97902.41
2017-12-10T10:45:02.720Z,97861.85
2017-12-10T10:47:30.390Z,97846.46
2017-12-10T10:49:58.086Z,97833.84
2017-12-10T10:52:25.747Z,97807.73
2017-12-10T10:54:53.439Z,97810.09
2017-12-10T10:57:21.118Z,97801.29
2017-12-10T10:59:48.813Z,97792.89
2017-12-10T11:02:16.488Z,97784.71
2017-12-10T11:04:44.187Z,97775.91
2017-12-10T11:07:11.870Z,97765.25
2017-12-10T11:09:39.554Z,97753.67
2017-12-10T11:12:07.244Z,97738.52
2017-12-10T11:14:38.264Z,97724.16
2017-12-10T11:17:05.950Z,97715.09
2017-12-10T11:19:33.650Z,97692.43
2017-12-10T11:22:01.310Z,97678.65
2017-12-10T11:24:29.010Z,97654.97
2017-12-10T11:26:56.904Z,97653.02
2017-12-10T11:29:24.748Z,97618.23
2017-12-10T11:31:52.393Z,97610.73
2017-12-10T11:34:20.076Z,97591.36
2017-12-10T11:36:47.788Z,97593.00
2017-12-10T11:39:15.476Z,97590.22
2017-12-10T11:41:43.155Z,97601.97
2017-12-10T11:44:10.858Z,97606.02
2017-12-10T11:46:38.510Z,97594.58
2017-12-10T11:49:06.191Z,97593.25
2017-12-10T11:51:33.875Z,97578.14
2017-12-10T11:54:01.565Z,97570.25
2017-12-10T11:56:29.211Z,97563.40
2017-12-10T11:58:56.920Z,97564.05
2017-12-10T12:01:24.576Z,97545.92
2017-12-10T12:03:52.307Z,97537.51
2017-12-10T12:06:19.956Z,97529.50
2017-12-10T12:08:47.710Z,97534.14
2017-12-10T12:11:15.384Z,97534.66
2017-12-10T12:13:43.078Z,97536.04
2017-12-10T12:16:10.755Z,97534.20
2017-12-10T12:18:38.506Z,97534.00
2017-12-10T12:21:06.178Z,97513.33
2017-12-10T12:23:33.888Z,97511.94
2017-12-10T12:26:01.534Z,97521.64
2017-12-10T12:28:29.256Z,97497.97
2017-12-10T12:30:56.931Z,97474.45
2017-12-10T12:33:24.625Z,97477.97
2017-12-10T12:35:52.293Z,97484.61
2017-12-10T12:38:19.990Z,97478.92
2017-12-10T12:40:47.643Z,97466.33
2017-12-10T12:43:15.539Z,97451.46
2017-12-10T12:45:43.234Z,97442.53
2017-12-10T12:48:10.926Z,97422.38
2017-12-10T12:50:38.617Z,97428.19
2017-12-10T12:53:06.360Z,97424.10
2017-12-10T12:55:34.018Z,97402.95
2017-12-10T12:58:01.702Z,97397.95
2017-12-10T13:00:29.402Z,97396.98
2017-12-10T13:02:57.087Z,97398.27
2017-12-10T13:05:24.744Z,97378.63
2017-12-10T13:07:52.450Z,97386.34
2017-12-10T13:10:20.105Z,97362.38
2017-12-10T13:12:47.798Z,97354.34
2017-12-10T13:15:15.455Z,97363.55
2017-12-10T13:17:43.158Z,97356.43
2017-12-10T13:20:10.834Z,97354.22
2017-12-10T13:22:38.519Z,97357.54
2017-12-10T13:25:06.202Z,97350.16
2017-12-10T13:27:33.909Z,97344.27
2017-12-10T13:30:01.605Z,97349.10
2017-12-10T13:32:29.661Z,97327.74
2017-12-10T13:34:57.394Z,97321.28
2017-12-10T13:37:25.080Z,97307.50
2017-12-10T13:39:52.838Z,97298.33
2017-12-10T13:42:20.542Z,97292.89
2017-12-10T13:44:48.245Z,97280.84
2017-12-10T13:47:15.894Z,97262.64
2017-12-10T13:49:43.574Z,97251.11
2017-12-10T13:52:11.265Z,97244.35
2017-12-10T13:54:38.961Z,97242.09
2017-12-10T13:57:06.644Z,97233.87
2017-12-10T13:59:34.330Z,97228.56
2017-12-10T14:02:01.992Z,97224.19
2017-12-10T14:04:29.711Z,97200.70
2017-12-10T14:06:57.382Z,97205.88
2017-12-10T14:09:25.082Z,97205.91
2017-12-10T14:11:52.754Z,97205.30
2017-12-10T14:14:20.444Z,97192.45
2017-12-10T14:16:48.140Z,97216.42
2017-12-10T14:19:15.850Z,97194.72
2017-12-10T14:21:43.502Z,97198.20
2017-12-10T14:24:11.192Z,97199.19
2017-12-10T14:26:38.859Z,97206.02
2017-12-10T14:29:06.657Z,97189.17
2017-12-10T14:31:34.312Z,97190.52
2017-12-10T14:34:02.059Z,97178.45
2017-12-10T14:36:29.771Z,97181.36
2017-12-10T14:38:57.554Z,97169.73
2017-12-10T14:41:25.299Z,97177.93
2017-12-10T14:43:53.109Z,97179.20
2017-12-10T14:46:20.828Z,97173.41
2017-12-10T14:48:48.519Z,97174.39
2017-12-10T14:51:16.251Z,97166.17
2017-12-10T14:53:44.170Z,97167.40
2017-12-10T14:56:11.906Z,97166.00
2017-12-10T14:58:39.559Z,97160.06
2017-12-10T15:01:07.307Z,97151.89
2017-12-10T15:03:35.000Z,97154.93
2017-12-10T15:06:02.707Z,97161.33
2017-12-10T15:08:30.402Z,97155.75
2017-12-10T15:10:58.267Z,97152.05
2017-12-10T15:13:26.028Z,97156.88
2017-12-10T15:15:53.728Z,97154.41
2017-12-10T15:18:21.398Z,97148.81
2017-12-10T15:20:49.089Z,97155.73
2017-12-10T15:23:16.785Z,97149.91
2017-12-10T15:25:44.474Z,97143.41
2017-12-10T15:28:12.126Z,97147.97
2017-12-10T15:30:39.846Z,97147.62
2017-12-10T15:33:07.515Z,97143.67
2017-12-10T15:35:35.228Z,97128.19
2017-12-10T15:38:02.878Z,97129.30
2017-12-10T15:40:30.672Z,97122.09
2017-12-10T15:42:59.170Z,97116.16
2017-12-10T15:45:26.890Z,97129.76
2017-12-10T15:47:54.562Z,97118.98
2017-12-10T15:50:22.305Z,97113.70
2017-12-10T15:52:49.983Z,97103.33
2017-12-10T15:55:17.663Z,97109.78
2017-12-10T15:57:45.344Z,97115.13
2017-12-10T16:00:13.050Z,97106.48
2017-12-10T16:02:40.692Z,97106.42
2017-12-10T16:05:08.419Z,97115.04
2017-12-10T16:07:36.102Z,97109.09
2017-12-10T16:10:03.795Z,97107.41
2017-12-10T16:12:31.507Z,97109.41
2017-12-10T16:14:59.255Z,97105.02
2017-12-10T16:17:26.947Z,97096.72
2017-12-10T16:19:54.727Z,97091.36
2017-12-10T16:22:22.412Z,97092.28
2017-12-10T16:24:50.178Z,97084.67
2017-12-10T16:27:17.986Z,97101.34
2017-12-10T16:29:45.635Z,97102.55
2017-12-10T16:32:13.327Z,97094.56
2017-12-10T16:34:40.912Z,97090.55
2017-12-10T16:37:08.629Z,97083.23
2017-12-10T16:39:36.326Z,97083.41
2017-12-10T16:42:03.967Z,97087.80
2017-12-10T16:44:31.552Z,97085.45
2017-12-10T16:46:59.299Z,97079.16
2017-12-10T16:49:26.887Z,97084.14
2017-12-10T16:51:54.546Z,97076.41
2017-12-10T16:54:22.133Z,97075.11
2017-12-10T16:56:49.802Z,97080.11
2017-12-10T16:59:17.395Z,97077.51
2017-12-10T17:01:45.167Z,97072.45
2017-12-10T17:04:12.796Z,97069.34
2017-12-10T17:06:40.420Z,97067.24
2017-12-10T17:09:08.211Z,97066.53
2017-12-10T17:11:35.980Z,97059.35
2017-12-10T17:14:03.717Z,97051.03
2017-12-10T17:16:31.315Z,97049.69
2017-12-10T17:18:59.124Z,97059.13
2017-12-10T17:21:26.836Z,97054.52
2017-12-10T17:23:54.687Z,97055.28
2017-12-10T17:26:22.363Z,97045.05
2017-12-10T17:28:50.085Z,97035.61
2017-12-10T17:31:17.737Z,97035.42
2017-12-10T17:33:45.447Z,97026.55
2017-12-10T17:36:13.079Z,97026.13
2017-12-10T17:38:40.731Z,97032.02
2017-12-10T17:41:08.628Z,97037.05
2017-12-10T17:43:36.487Z,97042.33
2017-12-10T17:46:04.160Z,97044.55
2017-12-10T17:48:32.317Z,97059.94
2017-12-10T17:51:00.090Z,97048.14
2017-12-10T17:53:27.976Z,97066.64
2017-12-10T17:55:55.600Z,97045.67
2017-12-10T17:58:23.465Z,97052.05
2017-12-10T18:00:51.192Z,97062.77
2017-12-10T18:03:18.867Z,97059.42
2017-12-10T18:05:46.585Z,97078.04
2017-12-10T18:08:14.463Z,97069.36
2017-12-10T18:10:42.129Z,97085.84
2017-12-10T18:13:09.834Z,97094.88
2017-12-10T18:15:37.723Z,97109.34
2017-12-10T18:18:05.598Z,97101.10
2017-12-10T18:20:33.349Z,97099.03
2017-12-10T18:23:01.007Z,97092.98
2017-12-10T18:25:28.776Z,97090.20
2017-12-10T18:27:56.624Z,97093.09
2017-12-10T18:30:24.295Z,97073.18
2017-12-10T18:32:53.576Z,97104.66
2017-12-10T18:35:21.181Z,97094.09
2017-12-10T18:37:48.836Z,97103.25
2017-12-10T18:40:16.496Z,97112.44
2017-12-10T18:42:44.418Z,97110.37
2017-12-10T18:45:12.203Z,97116.02
2017-12-10T18:47:39.919Z,97107.36
2017-12-10T18:50:07.569Z,97118.83
2017-12-10T18:52:35.266Z,97116.78
2017-12-10T18:55:03.076Z,97121.20
2017-12-10T18:57:30.783Z,97115.73
2017-12-10T18:59:58.441Z,97100.00
2017-12-10T19:02:26.071Z,97108.52
2017-12-10T19:04:53.852Z,97119.75
2017-12-10T19:07:21.490Z,97113.30
2017-12-10T19:09:49.097Z,97127.28
2017-12-10T19:12:16.733Z,97139.14
2017-12-10T19:14:44.341Z,97129.42
2017-12-10T19:17:11.959Z,97133.43
2017-12-10T19:19:39.656Z,97135.00
2017-12-10T19:22:07.301Z,97134.78
2017-12-10T19:24:34.908Z,97124.89
2017-12-10T19:27:02.630Z,97122.80
2017-12-10T19:29:30.277Z,97126.55
2017-12-10T19:31:57.901Z,97131.42
2017-12-10T19:34:25.633Z,97137.33
2017-12-10T19:36:53.290Z,97143.63
2017-12-10T19:39:20.909Z,97139.73
2017-12-10T19:41:48.499Z,97144.16
2017-12-10T19:44:16.123Z,97138.70
2017-12-10T19:46:43.764Z,97133.81
2017-12-10T19:49:11.385Z,97131.58
2017-12-10T19:51:39.044Z,97143.58
2017-12-10T19:54:06.688Z,97120.80
2017-12-10T19:56:34.295Z,97135.42
2017-12-10T19:59:01.935Z,97122.50
2017-12-10T20:01:29.704Z,97137.98
2017-12-10T20:04:00.034Z,97113.69
2017-12-10T20:06:27.725Z,97143.30
2017-12-10T20:08:55.365Z,97146.96
2017-12-10T20:11:23.069Z,97135.64
2017-12-10T20:13:50.899Z,97136.09
2017-12-10T20:16:18.667Z,97140.77
2017-12-10T20:18:46.323Z,97145.05
2017-12-10T20:21:14.017Z,97152.67
2017-12-10T20:23:41.722Z,97142.62
2017-12-10T20:26:09.388Z,97148.98
2017-12-10T20:28:37.019Z,97144.67
2017-12-10T20:31:04.694Z,97159.20
2017-12-10T20:33:32.339Z,97172.13
2017-12-10T20:35:59.959Z,97155.18
2017-12-10T20:38:27.547Z,97160.14
2017-12-10T20:40:55.166Z,97166.02
2017-12-10T20:43:22.746Z,97184.00
2017-12-10T20:45:50.362Z,97182.80
2017-12-10T20:48:18.042Z,97204.77
2017-12-10T20:50:45.662Z,97193.58
2017-12-10T20:53:13.448Z,97211.80
2017-12-10T20:55:41.150Z,97219.16
2017-12-10T20:58:08.739Z,97210.77
2017-12-10T21:00:36.525Z,97211.31
2017-12-10T21:03:04.183Z,97201.72
2017-12-10T21:05:31.789Z,97241.02
2017-12-10T21:07:59.407Z,97268.30
2017-12-10T21:10:27.029Z,97284.28
2017-12-10T21:12:54.665Z,97305.63
2017-12-10T21:15:22.273Z,97318.66
2017-12-10T21:17:49.871Z,97334.16
2017-12-10T21:20:17.534Z,97334.59
2017-12-10T21:22:45.116Z,97432.42
2017-12-10T21:25:12.816Z,97359.00
2017-12-10T21:27:40.395Z,97365.25
2017-12-10T21:30:08.000Z,97377.03
2017-12-10T21:32:35.579Z,97386.41
2017-12-10T21:35:03.252Z,97381.50
2017-12-10T21:37:30.843Z,97411.03
2017-12-10T21:39:58.463Z,97410.18
2017-12-10T21:42:26.062Z,97440.64
2017-12-10T21:44:53.768Z,97423.28
2017-12-10T21:47:21.356Z,97405.65
2017-12-10T21:49:48.979Z,97428.75
2017-12-10T21:52:16.574Z,97430.88
2017-12-10T21:54:44.239Z,97435.61
2017-12-10T21:57:11.808Z,97436.16
2017-12-10T21:59:39.525Z,97434.28
2017-12-10T22:02:07.117Z,97454.02
2017-12-10T22:04:34.719Z,97448.71
2017-12-10T22:07:02.292Z,97485.08
2017-12-10T22:09:29.919Z,97477.50
2017-12-10T22:11:57.550Z,97480.38
2017-12-10T22:14:25.126Z,97479.67
2017-12-10T22:16:52.758Z,97499.24
2017-12-10T22:19:20.368Z,97503.97
2017-12-10T22:21:47.971Z,97498.05
2017-12-10T22:24:15.561Z,97506.45
2017-12-10T22:26:43.169Z,97502.66
2017-12-10T22:29:10.755Z,97521.94
2017-12-10T22:31:38.363Z,97526.59
2017-12-10T22:34:05.943Z,97518.61
2017-12-10T22:36:33.572Z,97553.76
2017-12-10T22:39:01.154Z,97558.41
2017-12-10T22:41:28.766Z,97556.38
2017-12-10T22:43:56.407Z,97568.36
2017-12-10T22:46:24.018Z,97581.22
2017-12-10T22:48:51.600Z,97573.93
2017-12-10T22:51:19.221Z,97578.82
2017-12-10T22:53:46.814Z,97585.30
2017-12-10T22:56:14.427Z,97600.19
2017-12-10T22:58:42.035Z,97598.62
2017-12-10T23:01:09.689Z,97610.75
2017-12-10T23:03:37.287Z,97613.91
2017-12-10T23:06:04.974Z,97623.73
2017-12-10T23:08:32.558Z,97645.77
2017-12-10T23:11:00.142Z,97649.48
2017-12-10T23:13:39.304Z,97659.52
2017-12-10T23:16:18.660Z,97679.84
2017-12-10T23:18:46.324Z,97682.14
2017-12-10T23:21:13.964Z,97669.99
2017-12-10T23:23:41.569Z,97681.97
2017-12-10T23:26:09.202Z,97684.77
2017-12-10T23:28:36.843Z,97684.97
2017-12-10T23:31:04.720Z,97680.98
2017-12-10T23:33:32.457Z,97697.95
2017-12-10T23:36:00.051Z,97708.41
2017-12-10T23:38:27.722Z,97716.75
2017-12-10T23:40:55.330Z,97731.08
2017-12-10T23:43:23.022Z,97759.81
2017-12-10T23:45:50.655Z,97759.73
2017-12-10T23:48:18.288Z,97755.60
2017-12-10T23:50:45.915Z,97778.97
2017-12-10T23:53:13.636Z,97784.02
2017-12-10T23:55:41.223Z,97801.64
2017-12-10T23:58:08.866Z,97789.36
